createdAt,value
2022-10-06T00:00:21.570Z,16.60
2022-10-06T00:05:25.624Z,16.60
2022-10-06T00:10:28.157Z,16.40
2022-10-06T00:15:32.786Z,16.30
2022-10-06T00:20:36.782Z,16.20
2022-10-06T00:25:39.412Z,16.20
2022-10-06T00:30:41.981Z,16.10
2022-10-06T00:35:46.623Z,16.00
2022-10-06T00:40:51.263Z,16.00
2022-10-06T00:45:53.869Z,15.90
2022-10-06T00:50:58.788Z,15.90
2022-10-06T00:56:01.515Z,15.80
2022-10-06T01:01:04.821Z,15.70
2022-10-06T01:06:08.889Z,15.70
2022-10-06T01:11:12.077Z,15.70
2022-10-06T01:16:20.769Z,15.70
2022-10-06T01:21:32.009Z,15.70
2022-10-06T01:26:38.689Z,15.70
2022-10-06T01:31:41.339Z,15.60
2022-10-06T01:36:43.889Z,15.60
2022-10-06T01:41:47.684Z,15.50
2022-10-06T01:46:50.234Z,15.50
2022-10-06T01:51:52.792Z,15.40
2022-10-06T01:56:56.933Z,15.40
2022-10-06T02:01:59.440Z,15.30
2022-10-06T02:07:02.064Z,15.30
2022-10-06T02:12:06.043Z,15.30
2022-10-06T02:17:08.610Z,15.20
2022-10-06T02:22:11.631Z,15.20
2022-10-06T02:27:15.679Z,15.20
2022-10-06T02:32:18.094Z,15.20
2022-10-06T02:37:20.457Z,15.10
2022-10-06T02:42:24.796Z,15.10
2022-10-06T02:47:27.167Z,15.00
2022-10-06T02:52:33.771Z,15.00
2022-10-06T02:57:38.124Z,14.90
2022-10-06T03:02:40.636Z,14.90
2022-10-06T03:07:43.214Z,14.80
2022-10-06T03:12:47.238Z,14.70
2022-10-06T03:17:49.714Z,14.70
2022-10-06T03:22:53.841Z,14.70
2022-10-06T03:27:57.766Z,14.60
2022-10-06T03:33:00.376Z,14.50
2022-10-06T03:38:03.389Z,14.50
2022-10-06T03:43:10.085Z,14.50
2022-10-06T03:48:13.246Z,14.50
2022-10-06T03:53:18.632Z,14.50
2022-10-06T03:58:22.348Z,14.50
2022-10-06T04:03:25.122Z,14.50
2022-10-06T04:08:28.751Z,14.40
2022-10-06T04:13:33.349Z,14.40
2022-10-06T04:18:36.662Z,14.30
2022-10-06T04:23:39.641Z,14.30
2022-10-06T04:28:45.391Z,14.20
2022-10-06T04:33:50.894Z,14.20
2022-10-06T04:38:54.988Z,14.10
2022-10-06T04:43:59.314Z,14.00
2022-10-06T04:49:01.736Z,14.00
2022-10-06T04:54:04.299Z,13.90
2022-10-06T04:59:08.353Z,13.80
2022-10-06T05:04:10.714Z,13.80
2022-10-06T05:09:15.550Z,13.70
2022-10-06T05:14:20.205Z,13.70
2022-10-06T05:19:22.710Z,13.60
2022-10-06T05:24:25.344Z,13.50
2022-10-06T05:29:30.097Z,13.50
2022-10-06T05:34:32.482Z,13.50
2022-10-06T05:39:34.933Z,13.40
2022-10-06T05:44:39.080Z,13.40
2022-10-06T05:49:41.956Z,13.40
2022-10-06T05:54:44.552Z,13.40
2022-10-06T05:59:48.605Z,13.40
2022-10-06T06:04:51.119Z,13.40
2022-10-06T06:09:53.508Z,13.50
2022-10-06T06:14:57.498Z,13.60
2022-10-06T06:20:00.118Z,13.70
2022-10-06T06:25:02.624Z,13.70
2022-10-06T06:30:08.497Z,13.90
2022-10-06T06:35:11.801Z,14.10
2022-10-06T06:40:14.374Z,14.50
2022-10-06T06:45:18.542Z,15.10
2022-10-06T06:50:21.139Z,15.90
2022-10-06T06:55:23.530Z,16.60
2022-10-06T07:00:27.399Z,17.40
2022-10-06T07:05:29.750Z,18.20
2022-10-06T07:10:32.948Z,18.90
2022-10-06T07:15:36.893Z,19.50
2022-10-06T07:20:39.361Z,20.00
2022-10-06T07:25:42.094Z,20.50
2022-10-06T07:30:46.370Z,20.90
2022-10-06T07:35:49.121Z,21.30
2022-10-06T07:41:17.795Z,21.70
2022-10-06T07:46:19.732Z,22.10
2022-10-06T07:51:22.372Z,22.40
2022-10-06T07:56:25.246Z,22.70
2022-10-06T08:01:30.035Z,22.90
2022-10-06T08:06:32.866Z,23.30
2022-10-06T08:11:36.047Z,23.60
2022-10-06T08:16:40.993Z,23.90
2022-10-06T08:21:43.721Z,23.90
2022-10-06T08:26:46.766Z,23.90
2022-10-06T08:31:50.689Z,24.10
2022-10-06T08:37:18.689Z,24.50
2022-10-06T08:42:22.656Z,24.70
2022-10-06T08:47:29.900Z,25.10
2022-10-06T08:52:50.182Z,25.30
2022-10-06T09:03:20.392Z,25.70
2022-10-06T09:08:49.062Z,25.80
2022-10-06T09:13:55.154Z,25.70
2022-10-06T09:19:14.822Z,25.70
2022-10-06T09:24:18.836Z,25.60
2022-10-06T09:29:21.435Z,25.40
2022-10-06T09:34:33.325Z,25.50
2022-10-06T09:39:38.787Z,25.50
2022-10-06T09:44:53.947Z,25.30
2022-10-06T09:50:17.629Z,25.10
2022-10-06T09:55:20.801Z,24.90
2022-10-06T10:00:28.251Z,24.70
2022-10-06T10:05:34.934Z,24.80
2022-10-06T10:10:37.527Z,24.70
2022-10-06T10:15:52.545Z,24.80
2022-10-06T10:21:00.065Z,24.70
2022-10-06T10:26:25.135Z,24.80
2022-10-06T10:31:37.175Z,24.90
2022-10-06T10:36:50.816Z,25.10
2022-10-06T10:41:59.793Z,25.40
2022-10-06T10:47:13.227Z,25.60
2022-10-06T10:52:23.459Z,25.40
2022-10-06T10:57:34.713Z,25.30
2022-10-06T11:02:38.218Z,25.40
2022-10-06T11:07:47.165Z,25.70
2022-10-06T11:13:03.920Z,26.00
2022-10-06T11:18:21.427Z,26.10
2022-10-06T11:23:38.754Z,26.00
2022-10-06T11:28:49.067Z,26.00
2022-10-06T11:33:53.808Z,26.30
2022-10-06T11:39:04.854Z,26.60
2022-10-06T11:44:14.747Z,26.90
2022-10-06T11:49:36.553Z,27.00
2022-10-06T11:54:50.360Z,27.20
2022-10-06T12:00:18.391Z,27.30
2022-10-06T12:10:57.549Z,27.30
2022-10-06T12:21:55.378Z,26.90
2022-10-06T12:27:23.366Z,26.70
2022-10-06T12:32:45.874Z,26.40
2022-10-06T12:37:54.004Z,26.30
2022-10-06T12:43:29.028Z,26.20
2022-10-06T12:48:37.865Z,26.00
2022-10-06T12:53:49.214Z,25.80
2022-10-06T12:58:53.745Z,25.80
2022-10-06T13:03:56.268Z,25.80
2022-10-06T13:09:12.328Z,25.80
2022-10-06T13:14:16.557Z,25.70
2022-10-06T13:19:24.415Z,25.50
2022-10-06T13:24:28.220Z,25.20
2022-10-06T13:29:32.578Z,24.90
2022-10-06T13:34:36.430Z,24.70
2022-10-06T13:39:39.165Z,24.70
2022-10-06T13:44:47.659Z,24.40
2022-10-06T13:49:53.992Z,24.20
2022-10-06T13:54:59.187Z,24.00
2022-10-06T14:00:21.544Z,23.80
2022-10-06T14:05:27.778Z,23.60
2022-10-06T14:10:37.093Z,23.50
2022-10-06T14:15:49.914Z,23.40
2022-10-06T14:20:54.382Z,23.20
2022-10-06T14:25:56.730Z,23.10
2022-10-06T14:31:00.899Z,23.00
2022-10-06T14:36:03.478Z,22.90
2022-10-06T14:41:06.145Z,22.70
2022-10-06T14:46:11.856Z,22.60
2022-10-06T14:51:16.032Z,22.50
2022-10-06T14:56:19.195Z,22.30
2022-10-06T15:01:25.575Z,22.20
2022-10-06T15:06:28.428Z,22.10
2022-10-06T15:11:31.709Z,22.00
2022-10-06T15:16:37.713Z,21.90
2022-10-06T15:21:41.603Z,21.70
2022-10-06T15:26:45.234Z,21.60
2022-10-06T15:31:51.508Z,21.50
2022-10-06T15:36:55.854Z,21.40
2022-10-06T15:41:58.735Z,21.20
2022-10-06T15:47:05.697Z,21.00
2022-10-06T15:52:10.746Z,20.80
2022-10-06T15:57:19.506Z,20.70
2022-10-06T16:02:25.130Z,20.60
2022-10-06T16:07:28.495Z,20.40
2022-10-06T16:12:34.104Z,20.30
2022-10-06T16:17:38.602Z,20.10
2022-10-06T16:22:42.657Z,20.00
2022-10-06T16:27:45.364Z,19.80
2022-10-06T16:32:50.101Z,19.60
2022-10-06T16:37:52.466Z,19.40
2022-10-06T16:42:57.996Z,19.20
2022-10-06T16:48:01.940Z,19.00
2022-10-06T16:53:17.542Z,18.80
2022-10-06T16:58:20.085Z,18.60
2022-10-06T17:03:24.082Z,18.40
2022-10-06T17:08:26.669Z,18.20
2022-10-06T17:13:29.715Z,18.10
2022-10-06T17:18:34.192Z,17.90
2022-10-06T17:23:38.397Z,17.70
2022-10-06T17:28:45.124Z,17.50
2022-10-06T17:33:49.583Z,17.40
2022-10-06T17:38:54.386Z,17.20
2022-10-06T17:43:58.060Z,17.10
2022-10-06T17:49:05.463Z,16.90
2022-10-06T17:54:09.775Z,16.80
2022-10-06T17:59:14.833Z,16.60
2022-10-06T18:04:19.994Z,16.50
2022-10-06T18:09:23.624Z,16.50
2022-10-06T18:14:27.887Z,16.40
2022-10-06T18:19:39.146Z,16.30
2022-10-06T18:24:41.558Z,16.30
2022-10-06T18:29:43.891Z,16.20
2022-10-06T18:40:11.389Z,16.00
2022-10-06T18:45:14.013Z,15.90
2022-10-06T18:50:18.589Z,15.90
2022-10-06T18:55:21.186Z,15.80
2022-10-06T19:00:24.642Z,15.70
2022-10-06T19:05:31.555Z,15.60
2022-10-06T19:10:40.745Z,15.60
2022-10-06T19:15:51.950Z,15.50
2022-10-06T19:20:56.720Z,15.40
2022-10-06T19:26:00.481Z,15.40
2022-10-06T19:31:08.686Z,15.30
2022-10-06T19:36:13.531Z,15.20
2022-10-06T19:41:15.798Z,15.30
2022-10-06T19:46:19.252Z,15.20
2022-10-06T19:51:24.003Z,15.10
2022-10-06T19:56:26.489Z,15.00
2022-10-06T20:01:29.666Z,15.00
2022-10-06T20:06:34.130Z,14.90
2022-10-06T20:11:38.726Z,14.90
2022-10-06T20:16:41.677Z,14.80
2022-10-06T20:21:46.704Z,14.60
2022-10-06T20:26:50.852Z,14.50
2022-10-06T20:31:55.152Z,14.30
2022-10-06T20:37:00.304Z,14.20
2022-10-06T20:42:03.541Z,14.20
2022-10-06T20:47:06.999Z,14.10
2022-10-06T20:52:12.644Z,14.10
2022-10-06T20:57:17.698Z,14.00
2022-10-06T21:02:21.616Z,14.00
2022-10-06T21:07:26.201Z,13.90
2022-10-06T21:12:30.003Z,13.90
2022-10-06T21:17:32.860Z,13.80
2022-10-06T21:22:37.965Z,13.80
2022-10-06T21:27:42.825Z,13.70
2022-10-06T21:32:46.574Z,13.60
2022-10-06T21:37:51.392Z,13.60
2022-10-06T21:42:54.980Z,13.50
2022-10-06T21:47:58.753Z,13.50
2022-10-06T21:53:03.283Z,13.40
2022-10-06T21:58:05.931Z,13.40
2022-10-06T22:03:08.796Z,13.40
2022-10-06T22:08:13.344Z,13.40
2022-10-06T22:13:16.243Z,13.40
2022-10-06T22:18:18.838Z,13.30
2022-10-06T22:23:22.759Z,13.20
2022-10-06T22:28:25.654Z,13.20
2022-10-06T22:33:28.273Z,13.10
2022-10-06T22:38:33.926Z,13.10
2022-10-06T22:43:37.826Z,13.10
2022-10-06T22:48:41.056Z,13.10
2022-10-06T22:53:45.032Z,13.10
2022-10-06T22:58:47.787Z,13.10
2022-10-06T23:03:50.611Z,13.00
2022-10-06T23:08:54.457Z,13.00
2022-10-06T23:13:57.035Z,12.90
2022-10-06T23:18:59.552Z,12.90
2022-10-06T23:24:03.504Z,12.90
2022-10-06T23:29:06.477Z,12.80
2022-10-06T23:34:09.157Z,12.80
2022-10-06T23:39:13.237Z,12.70
2022-10-06T23:44:15.520Z,12.70
2022-10-06T23:49:17.839Z,12.70
2022-10-06T23:54:22.001Z,12.60
2022-10-06T23:59:24.606Z,12.60
